createdAt,value
2023-02-13T00:00:47.241Z,4.50
2023-02-13T00:03:14.911Z,4.50
2023-02-13T00:05:42.079Z,4.50
2023-02-13T00:08:09.377Z,4.50
2023-02-13T00:10:37.296Z,4.50
2023-02-13T00:13:04.586Z,4.50
2023-02-13T00:15:32.011Z,4.40
2023-02-13T00:17:59.251Z,4.50
2023-02-13T00:20:26.488Z,4.50
2023-02-13T00:22:53.612Z,4.50
2023-02-13T00:25:20.667Z,4.40
2023-02-13T00:27:47.873Z,4.40
2023-02-13T00:30:15.539Z,4.40
2023-02-13T00:32:42.669Z,4.40
2023-02-13T00:35:09.891Z,4.40
2023-02-13T00:37:37.042Z,4.40
2023-02-13T00:40:04.820Z,4.40
2023-02-13T00:42:31.875Z,4.40
2023-02-13T00:44:58.975Z,4.40
2023-02-13T00:47:26.118Z,4.40
2023-02-13T00:49:53.181Z,4.40
2023-02-13T00:52:20.288Z,4.40
2023-02-13T00:54:47.804Z,4.40
2023-02-13T00:57:14.975Z,4.40
2023-02-13T00:59:42.102Z,4.30
2023-02-13T01:02:09.219Z,4.30
2023-02-13T01:04:36.499Z,4.30
2023-02-13T01:07:03.630Z,4.30
2023-02-13T01:09:30.765Z,4.30
2023-02-13T01:11:57.879Z,4.30
2023-02-13T01:14:25.529Z,4.30
2023-02-13T01:16:52.618Z,4.30
2023-02-13T01:19:19.806Z,4.30
2023-02-13T01:21:46.860Z,4.30
2023-02-13T01:24:13.970Z,4.30
2023-02-13T01:26:41.383Z,4.30
2023-02-13T01:29:09.789Z,4.30
2023-02-13T01:31:36.954Z,4.30
2023-02-13T01:34:04.195Z,4.30
2023-02-13T01:36:31.331Z,4.30
2023-02-13T01:38:59.171Z,4.30
2023-02-13T01:41:27.807Z,4.30
2023-02-13T01:43:59.206Z,4.30
2023-02-13T01:46:28.902Z,4.20
2023-02-13T01:49:09.407Z,4.20
2023-02-13T01:51:37.216Z,4.30
2023-02-13T01:54:07.726Z,4.30
2023-02-13T01:56:53.476Z,4.20
2023-02-13T01:59:26.097Z,4.30
2023-02-13T02:01:54.383Z,4.30
2023-02-13T02:04:34.076Z,4.20
2023-02-13T02:07:06.892Z,4.20
2023-02-13T02:09:37.534Z,4.20
2023-02-13T02:12:13.959Z,4.20
2023-02-13T02:14:41.902Z,4.20
2023-02-13T02:17:09.533Z,4.20
2023-02-13T02:19:56.364Z,4.20
2023-02-13T02:22:26.427Z,4.20
2023-02-13T02:25:11.375Z,4.20
2023-02-13T02:27:46.722Z,4.10
2023-02-13T02:30:31.442Z,4.10
2023-02-13T02:33:31.017Z,4.10
2023-02-13T02:36:07.069Z,4.10
2023-02-13T02:38:48.743Z,4.10
2023-02-13T02:41:43.070Z,4.10
2023-02-13T02:44:18.489Z,4.10
2023-02-13T02:47:16.800Z,4.10
2023-02-13T02:50:02.100Z,4.10
2023-02-13T02:52:45.427Z,4.00
2023-02-13T02:55:36.156Z,4.00
2023-02-13T02:58:28.047Z,4.00
2023-02-13T03:01:16.441Z,4.00
2023-02-13T03:04:02.669Z,4.00
2023-02-13T03:06:42.745Z,4.00
2023-02-13T03:09:33.042Z,3.90
2023-02-13T03:12:19.711Z,3.90
2023-02-13T03:14:46.844Z,3.90
2023-02-13T03:17:35.740Z,3.90
2023-02-13T03:20:27.076Z,3.80
2023-02-13T03:23:14.826Z,3.80
2023-02-13T03:25:58.398Z,3.80
2023-02-13T03:28:59.940Z,3.80
2023-02-13T03:32:01.538Z,3.80
2023-02-13T03:34:55.476Z,3.80
2023-02-13T03:37:48.731Z,3.80
2023-02-13T03:41:07.186Z,3.80
2023-02-13T03:43:45.108Z,3.70
2023-02-13T03:46:13.463Z,3.80
2023-02-13T03:49:01.227Z,3.70
2023-02-13T03:51:34.684Z,3.70
2023-02-13T03:54:07.341Z,3.70
2023-02-13T03:56:54.598Z,3.70
2023-02-13T03:59:29.012Z,3.60
2023-02-13T04:02:01.547Z,3.60
2023-02-13T04:04:31.623Z,3.60
2023-02-13T04:07:12.824Z,3.60
2023-02-13T04:09:42.917Z,3.60
2023-02-13T04:12:29.336Z,3.60
2023-02-13T04:15:12.699Z,3.50
2023-02-13T04:17:47.023Z,3.50
2023-02-13T04:20:14.898Z,3.50
2023-02-13T04:22:43.903Z,3.40
2023-02-13T04:25:13.258Z,3.50
2023-02-13T04:27:40.390Z,3.40
2023-02-13T04:30:09.175Z,3.40
2023-02-13T04:32:36.267Z,3.40
2023-02-13T04:35:03.747Z,3.40
2023-02-13T04:37:30.860Z,3.40
2023-02-13T04:39:57.913Z,3.40
2023-02-13T04:42:25.080Z,3.30
2023-02-13T04:44:52.165Z,3.30
2023-02-13T04:47:19.244Z,3.30
2023-02-13T04:49:46.313Z,3.20
2023-02-13T04:52:15.491Z,3.20
2023-02-13T04:54:42.693Z,3.20
2023-02-13T04:57:09.894Z,3.20
2023-02-13T04:59:37.056Z,3.20
2023-02-13T05:02:04.199Z,3.10
2023-02-13T05:04:31.450Z,3.10
2023-02-13T05:06:58.581Z,3.00
2023-02-13T05:09:25.715Z,3.00
2023-02-13T05:11:54.149Z,3.00
2023-02-13T05:14:21.565Z,3.00
2023-02-13T05:16:49.825Z,2.90
2023-02-13T05:19:17.362Z,2.90
2023-02-13T05:22:02.688Z,3.00
2023-02-13T05:24:29.773Z,3.00
2023-02-13T05:26:56.920Z,3.00
2023-02-13T05:29:24.146Z,3.00
2023-02-13T05:31:56.417Z,3.10
2023-02-13T05:34:26.130Z,3.10
2023-02-13T05:36:53.690Z,3.20
2023-02-13T05:39:21.241Z,3.20
2023-02-13T05:41:49.527Z,3.20
2023-02-13T05:44:17.108Z,3.20
2023-02-13T05:46:45.041Z,3.20
2023-02-13T05:49:13.752Z,3.30
2023-02-13T05:51:42.163Z,3.40
2023-02-13T05:54:09.413Z,3.30
2023-02-13T05:56:36.555Z,3.40
2023-02-13T05:59:04.097Z,3.50
2023-02-13T06:01:31.214Z,3.50
2023-02-13T06:04:00.021Z,3.50
2023-02-13T06:06:28.224Z,3.60
2023-02-13T06:08:55.449Z,3.60
2023-02-13T06:11:22.590Z,3.70
2023-02-13T06:13:49.652Z,3.70
2023-02-13T06:16:16.924Z,3.80
2023-02-13T06:18:44.254Z,3.80
2023-02-13T06:21:11.345Z,3.80
2023-02-13T06:23:38.479Z,3.90
2023-02-13T06:26:07.427Z,3.90
2023-02-13T06:28:34.944Z,4.00
2023-02-13T06:31:02.672Z,4.10
2023-02-13T06:33:31.269Z,4.20
2023-02-13T06:35:58.443Z,4.30
2023-02-13T06:38:25.723Z,4.50
2023-02-13T06:40:52.907Z,4.60
2023-02-13T06:43:20.049Z,4.70
2023-02-13T06:45:47.378Z,4.80
2023-02-13T06:48:15.172Z,5.00
2023-02-13T06:50:42.289Z,5.10
2023-02-13T06:53:09.398Z,5.20
2023-02-13T06:55:39.337Z,5.30
2023-02-13T06:58:06.669Z,5.40
2023-02-13T07:00:34.223Z,5.50
2023-02-13T07:03:03.513Z,5.60
2023-02-13T07:05:30.801Z,5.60
2023-02-13T07:07:58.136Z,5.70
2023-02-13T07:10:25.267Z,5.80
2023-02-13T07:13:05.013Z,5.80
2023-02-13T07:15:34.258Z,5.90
2023-02-13T07:18:01.738Z,6.00
2023-02-13T07:20:29.271Z,6.00
2023-02-13T07:23:04.595Z,6.10
2023-02-13T07:25:32.244Z,6.20
2023-02-13T07:28:04.252Z,6.20
2023-02-13T07:30:32.669Z,6.30
2023-02-13T07:33:04.241Z,6.30
2023-02-13T07:35:32.463Z,6.40
2023-02-13T07:38:00.815Z,6.50
2023-02-13T07:40:28.293Z,6.40
2023-02-13T07:42:56.686Z,6.40
2023-02-13T07:45:23.838Z,6.50
2023-02-13T07:47:50.938Z,6.50
2023-02-13T07:50:18.162Z,6.50
2023-02-13T07:52:45.257Z,6.50
2023-02-13T07:55:12.350Z,6.50
2023-02-13T07:57:39.443Z,6.50
2023-02-13T08:00:08.996Z,6.50
2023-02-13T08:02:36.077Z,6.60
2023-02-13T08:05:03.236Z,6.60
2023-02-13T08:07:30.382Z,6.60
2023-02-13T08:10:16.085Z,6.70
2023-02-13T08:12:43.286Z,6.70
2023-02-13T08:15:15.719Z,6.80
2023-02-13T08:17:42.814Z,6.80
2023-02-13T08:20:11.107Z,6.80
2023-02-13T08:22:39.114Z,6.90
2023-02-13T08:25:07.150Z,6.80
2023-02-13T08:27:34.697Z,6.90
2023-02-13T08:30:03.242Z,6.90
2023-02-13T08:32:30.374Z,6.90
2023-02-13T08:34:57.557Z,6.90
2023-02-13T08:37:24.976Z,6.90
2023-02-13T08:39:52.158Z,7.00
2023-02-13T08:42:19.304Z,7.00
2023-02-13T08:44:46.420Z,7.10
2023-02-13T08:47:13.591Z,7.20
2023-02-13T08:49:40.770Z,7.20
2023-02-13T08:52:07.915Z,7.20
2023-02-13T08:54:36.164Z,7.20
2023-02-13T08:57:03.685Z,7.20
2023-02-13T08:59:30.865Z,7.20
2023-02-13T09:01:58.315Z,7.20
2023-02-13T09:04:25.482Z,7.20
2023-02-13T09:06:52.612Z,7.30
2023-02-13T09:09:19.842Z,7.20
2023-02-13T09:11:46.999Z,7.30
2023-02-13T09:14:14.104Z,7.20
2023-02-13T09:16:41.289Z,7.30
2023-02-13T09:19:08.497Z,7.30
2023-02-13T09:21:35.660Z,7.20
2023-02-13T09:24:02.776Z,7.30
2023-02-13T09:26:29.891Z,7.30
2023-02-13T09:28:57.019Z,7.30
2023-02-13T09:31:24.442Z,7.40
2023-02-13T09:33:51.887Z,7.50
2023-02-13T09:36:22.496Z,7.50
2023-02-13T09:38:54.693Z,7.50
2023-02-13T09:41:39.972Z,7.50
2023-02-13T09:44:33.928Z,7.50
2023-02-13T09:47:30.227Z,7.60
2023-02-13T09:50:02.831Z,7.50
2023-02-13T09:52:35.738Z,7.50
2023-02-13T09:55:04.627Z,7.50
2023-02-13T09:57:36.729Z,7.60
2023-02-13T10:00:19.092Z,7.70
2023-02-13T10:02:59.225Z,7.70
2023-02-13T10:05:38.265Z,7.70
2023-02-13T10:08:51.631Z,7.80
2023-02-13T10:11:39.987Z,7.80
2023-02-13T10:14:15.069Z,7.80
2023-02-13T10:16:50.921Z,7.90
2023-02-13T10:19:36.575Z,7.90
2023-02-13T10:22:17.402Z,7.90
2023-02-13T10:24:50.048Z,7.90
2023-02-13T10:27:31.863Z,7.90
2023-02-13T10:30:12.936Z,8.00
2023-02-13T10:32:45.038Z,7.90
2023-02-13T10:35:19.628Z,8.00
2023-02-13T10:37:51.790Z,8.00
2023-02-13T10:40:19.587Z,8.10
2023-02-13T10:42:59.173Z,8.00
2023-02-13T10:45:30.074Z,8.10
2023-02-13T10:48:10.980Z,8.10
2023-02-13T10:50:44.709Z,8.20
2023-02-13T10:53:40.313Z,8.30
2023-02-13T10:56:27.671Z,8.30
2023-02-13T10:59:04.564Z,8.30
2023-02-13T11:01:34.779Z,8.40
2023-02-13T11:04:11.933Z,8.50
2023-02-13T11:06:48.848Z,8.60
2023-02-13T11:09:16.244Z,8.70
2023-02-13T11:11:44.060Z,8.70
2023-02-13T11:14:14.984Z,8.70
2023-02-13T11:16:52.269Z,8.80
2023-02-13T11:19:52.935Z,8.90
2023-02-13T11:22:46.442Z,8.90
2023-02-13T11:25:26.096Z,8.90
2023-02-13T11:28:09.074Z,9.00
2023-02-13T11:30:38.167Z,9.00
2023-02-13T11:33:22.978Z,9.10
2023-02-13T11:35:50.185Z,9.30
2023-02-13T11:38:18.311Z,9.40
2023-02-13T11:40:51.561Z,9.40
2023-02-13T11:43:47.674Z,9.50
2023-02-13T11:46:25.158Z,9.50
2023-02-13T11:49:00.022Z,9.60
2023-02-13T11:51:41.461Z,9.60
2023-02-13T11:54:22.173Z,9.70
2023-02-13T11:57:04.062Z,9.70
2023-02-13T11:59:39.999Z,9.70
2023-02-13T12:02:18.907Z,9.80
2023-02-13T12:04:47.815Z,9.90
2023-02-13T12:07:32.459Z,9.90
2023-02-13T12:10:04.019Z,9.90
2023-02-13T12:12:59.342Z,9.90
2023-02-13T12:15:29.152Z,9.80
2023-02-13T12:18:22.886Z,9.70
2023-02-13T12:21:05.586Z,9.70
2023-02-13T12:23:41.724Z,9.70
2023-02-13T12:26:31.654Z,9.80
2023-02-13T12:29:34.976Z,9.80
2023-02-13T12:32:06.497Z,9.70
2023-02-13T12:34:46.702Z,9.60
2023-02-13T12:37:25.737Z,9.50
2023-02-13T12:40:13.468Z,9.30
2023-02-13T12:43:10.013Z,9.20
2023-02-13T12:45:49.412Z,9.10
2023-02-13T12:48:40.025Z,9.10
2023-02-13T12:51:19.058Z,9.00
2023-02-13T12:54:13.750Z,9.10
2023-02-13T12:57:13.890Z,9.10
2023-02-13T12:59:59.722Z,9.20
2023-02-13T13:02:35.857Z,9.10
2023-02-13T13:05:13.597Z,9.10
2023-02-13T13:08:02.587Z,9.10
2023-02-13T13:10:35.702Z,9.20
2023-02-13T13:13:21.442Z,9.20
2023-02-13T13:16:02.867Z,9.10
2023-02-13T13:18:50.094Z,9.10
2023-02-13T13:21:20.431Z,9.20
2023-02-13T13:24:00.527Z,9.30
2023-02-13T13:26:38.114Z,9.40
2023-02-13T13:29:54.663Z,9.40
2023-02-13T13:32:22.755Z,9.40
2023-02-13T13:34:50.137Z,9.60
2023-02-13T13:37:17.302Z,9.70
2023-02-13T13:40:24.684Z,9.80
2023-02-13T13:42:59.541Z,9.90
2023-02-13T13:46:02.520Z,10.00
2023-02-13T13:48:59.420Z,10.00
2023-02-13T13:51:26.863Z,10.00
2023-02-13T13:54:02.950Z,10.00
2023-02-13T13:56:54.710Z,10.00
2023-02-13T13:59:51.422Z,9.90
2023-02-13T14:02:18.507Z,9.80
2023-02-13T14:05:21.373Z,9.60
2023-02-13T14:07:51.793Z,9.50
2023-02-13T14:10:21.952Z,9.40
2023-02-13T14:13:09.274Z,9.40
2023-02-13T14:15:44.794Z,9.40
2023-02-13T14:18:14.689Z,9.40
2023-02-13T14:20:50.908Z,9.40
2023-02-13T14:23:23.168Z,9.40
2023-02-13T14:25:51.230Z,9.40
2023-02-13T14:28:25.873Z,9.50
2023-02-13T14:31:07.081Z,9.60
2023-02-13T14:33:34.648Z,9.60
2023-02-13T14:36:08.032Z,9.60
2023-02-13T14:38:36.322Z,9.60
2023-02-13T14:41:04.155Z,9.70
2023-02-13T14:43:51.649Z,9.80
2023-02-13T14:46:41.204Z,9.80
2023-02-13T14:49:17.623Z,9.80
2023-02-13T14:51:52.129Z,9.80
2023-02-13T14:54:20.356Z,9.90
2023-02-13T14:56:50.289Z,9.90
2023-02-13T14:59:22.062Z,9.90
2023-02-13T15:02:00.000Z,9.90
2023-02-13T15:04:59.122Z,10.00
2023-02-13T15:07:33.766Z,10.00
2023-02-13T15:10:28.958Z,10.00
2023-02-13T15:13:02.239Z,10.00
2023-02-13T15:15:35.474Z,9.90
2023-02-13T15:18:08.978Z,9.90
2023-02-13T15:20:39.885Z,9.90
2023-02-13T15:23:07.591Z,9.90
2023-02-13T15:25:40.042Z,9.90
2023-02-13T15:28:16.429Z,9.90
2023-02-13T15:30:54.353Z,9.90
2023-02-13T15:33:23.586Z,9.90
2023-02-13T15:36:05.620Z,9.80
2023-02-13T15:38:36.787Z,9.80
2023-02-13T15:41:10.026Z,9.80
2023-02-13T15:43:40.461Z,9.70
2023-02-13T15:46:28.241Z,9.70
2023-02-13T15:48:58.771Z,9.70
2023-02-13T15:51:28.684Z,9.70
2023-02-13T15:54:01.751Z,9.70
2023-02-13T15:56:31.016Z,9.60
2023-02-13T15:58:59.947Z,9.60
2023-02-13T16:01:28.057Z,9.60
2023-02-13T16:04:06.921Z,9.60
2023-02-13T16:06:34.952Z,9.60
2023-02-13T16:09:03.320Z,9.50
2023-02-13T16:11:40.300Z,9.50
2023-02-13T16:14:17.297Z,9.50
2023-02-13T16:16:48.457Z,9.50
2023-02-13T16:19:24.289Z,9.50
2023-02-13T16:21:52.411Z,9.40
2023-02-13T16:24:20.121Z,9.40
2023-02-13T16:26:47.820Z,9.40
2023-02-13T16:29:26.303Z,9.40
2023-02-13T16:32:02.172Z,9.40
2023-02-13T16:34:31.164Z,9.40
2023-02-13T16:36:58.435Z,9.40
2023-02-13T16:39:30.037Z,9.40
2023-02-13T16:41:58.688Z,9.40
2023-02-13T16:44:34.391Z,9.40
2023-02-13T16:47:04.206Z,9.40
2023-02-13T16:49:37.505Z,9.30
2023-02-13T16:52:11.510Z,9.30
2023-02-13T16:54:44.199Z,9.30
2023-02-13T16:57:14.367Z,9.30
2023-02-13T16:59:54.018Z,9.30
2023-02-13T17:02:22.697Z,9.30
2023-02-13T17:05:09.561Z,9.20
2023-02-13T17:07:39.179Z,9.20
2023-02-13T17:10:08.638Z,9.20
2023-02-13T17:12:38.293Z,9.20
2023-02-13T17:15:12.349Z,9.20
2023-02-13T17:17:39.896Z,9.20
2023-02-13T17:20:08.873Z,9.20
2023-02-13T17:22:44.542Z,9.20
2023-02-13T17:25:24.669Z,9.20
2023-02-13T17:27:54.316Z,9.20
2023-02-13T17:30:26.832Z,9.20
2023-02-13T17:32:59.218Z,9.20
2023-02-13T17:35:26.464Z,9.20
2023-02-13T17:37:56.659Z,9.10
2023-02-13T17:40:30.231Z,9.10
2023-02-13T17:43:00.304Z,9.10
2023-02-13T17:45:30.963Z,9.10
2023-02-13T17:47:58.681Z,9.00
2023-02-13T17:50:28.414Z,9.00
2023-02-13T17:53:01.421Z,9.00
2023-02-13T17:55:30.719Z,8.90
2023-02-13T17:57:58.906Z,8.90
2023-02-13T18:00:29.914Z,8.90
2023-02-13T18:02:59.286Z,8.90
2023-02-13T18:05:28.079Z,9.00
2023-02-13T18:07:55.832Z,9.00
2023-02-13T18:10:51.164Z,9.00
2023-02-13T18:13:18.623Z,9.00
2023-02-13T18:15:46.372Z,9.00
2023-02-13T18:18:16.238Z,9.00
2023-02-13T18:20:43.944Z,9.00
2023-02-13T18:23:11.374Z,9.00
2023-02-13T18:25:38.447Z,9.00
2023-02-13T18:28:09.469Z,9.00
2023-02-13T18:30:36.652Z,9.00
2023-02-13T18:33:07.512Z,9.00
2023-02-13T18:35:39.071Z,9.00
2023-02-13T18:38:09.100Z,9.00
2023-02-13T18:40:38.303Z,9.00
2023-02-13T18:43:08.649Z,9.00
2023-02-13T18:45:36.540Z,9.00
2023-02-13T18:48:03.814Z,8.90
2023-02-13T18:50:32.874Z,9.00
2023-02-13T18:53:03.358Z,9.00
2023-02-13T18:55:33.113Z,8.90
2023-02-13T18:58:00.972Z,8.90
2023-02-13T19:00:29.250Z,8.90
2023-02-13T19:03:04.378Z,9.00
2023-02-13T19:05:34.560Z,9.00
2023-02-13T19:08:07.024Z,8.90
2023-02-13T19:10:39.893Z,8.90
2023-02-13T19:13:17.093Z,8.90
2023-02-13T19:15:55.874Z,8.90
2023-02-13T19:18:29.110Z,8.90
2023-02-13T19:21:05.951Z,8.90
2023-02-13T19:23:42.328Z,8.90
2023-02-13T19:26:25.220Z,8.90
2023-02-13T19:29:00.645Z,8.90
2023-02-13T19:31:34.317Z,8.80
2023-02-13T19:34:06.317Z,8.80
2023-02-13T19:36:36.554Z,8.80
2023-02-13T19:39:09.561Z,8.80
2023-02-13T19:41:41.083Z,8.80
2023-02-13T19:44:09.388Z,8.70
2023-02-13T19:46:38.294Z,8.70
2023-02-13T19:49:06.198Z,8.70
2023-02-13T19:51:34.618Z,8.60
2023-02-13T19:54:08.743Z,8.60
2023-02-13T19:56:37.775Z,8.50
2023-02-13T19:59:07.007Z,8.50
2023-02-13T20:01:34.190Z,8.40
2023-02-13T20:04:01.555Z,8.40
2023-02-13T20:06:35.865Z,8.40
2023-02-13T20:09:13.450Z,8.40
2023-02-13T20:11:41.528Z,8.40
2023-02-13T20:14:14.672Z,8.30
2023-02-13T20:16:46.426Z,8.30
2023-02-13T20:19:14.142Z,8.30
2023-02-13T20:21:47.166Z,8.40
2023-02-13T20:24:14.319Z,8.30
2023-02-13T20:26:42.353Z,8.30
2023-02-13T20:29:09.699Z,8.30
2023-02-13T20:31:37.075Z,8.30
2023-02-13T20:34:06.838Z,8.30
2023-02-13T20:36:34.708Z,8.30
2023-02-13T20:39:04.075Z,8.30
2023-02-13T20:41:33.973Z,8.20
2023-02-13T20:44:03.762Z,8.20
2023-02-13T20:46:32.849Z,8.20
2023-02-13T20:49:00.109Z,8.10
2023-02-13T20:51:27.645Z,8.10
2023-02-13T20:53:55.493Z,8.10
2023-02-13T20:56:24.927Z,8.10
2023-02-13T20:58:55.163Z,8.00
2023-02-13T21:01:25.705Z,8.00
2023-02-13T21:03:54.962Z,8.10
2023-02-13T21:06:25.792Z,8.10
2023-02-13T21:08:54.035Z,8.10
2023-02-13T21:11:22.016Z,8.10
2023-02-13T21:13:49.397Z,8.10
2023-02-13T21:16:18.694Z,8.10
2023-02-13T21:18:49.026Z,8.10
2023-02-13T21:21:17.604Z,8.20
2023-02-13T21:23:44.810Z,8.20
2023-02-13T21:26:17.208Z,8.20
2023-02-13T21:28:46.635Z,8.20
2023-02-13T21:31:18.917Z,8.20
2023-02-13T21:33:46.316Z,8.20
2023-02-13T21:36:13.572Z,8.20
2023-02-13T21:38:41.637Z,8.20
2023-02-13T21:41:14.372Z,8.20
2023-02-13T21:43:46.795Z,8.20
2023-02-13T21:46:25.834Z,8.20
2023-02-13T21:48:55.422Z,8.20
2023-02-13T21:51:23.890Z,8.20
2023-02-13T21:53:51.948Z,8.20
2023-02-13T21:56:21.700Z,8.20
2023-02-13T21:58:50.020Z,8.20
2023-02-13T22:01:26.126Z,8.20
2023-02-13T22:03:58.414Z,8.20
2023-02-13T22:06:28.344Z,8.10
2023-02-13T22:09:07.015Z,8.10
2023-02-13T22:11:35.525Z,8.00
2023-02-13T22:14:04.309Z,8.00
2023-02-13T22:16:33.818Z,8.00
2023-02-13T22:19:01.909Z,7.90
2023-02-13T22:21:31.075Z,7.90
2023-02-13T22:23:58.968Z,7.90
2023-02-13T22:26:37.725Z,7.90
2023-02-13T22:29:11.367Z,8.00
2023-02-13T22:31:38.708Z,8.00
2023-02-13T22:34:06.787Z,8.00
2023-02-13T22:36:38.526Z,8.00
2023-02-13T22:39:06.669Z,7.90
2023-02-13T22:41:34.070Z,7.90
2023-02-13T22:44:01.346Z,7.90
2023-02-13T22:46:33.326Z,7.90
2023-02-13T22:49:00.918Z,7.90
2023-02-13T22:51:33.296Z,7.80
2023-02-13T22:54:01.168Z,7.80
2023-02-13T22:56:30.419Z,7.80
2023-02-13T22:58:58.573Z,7.80
2023-02-13T23:01:27.297Z,7.80
2023-02-13T23:03:55.360Z,7.80
2023-02-13T23:06:23.646Z,7.80
2023-02-13T23:08:52.797Z,7.80
2023-02-13T23:11:43.461Z,7.80
2023-02-13T23:14:11.439Z,7.80
2023-02-13T23:16:58.555Z,7.80
2023-02-13T23:19:27.612Z,7.80
2023-02-13T23:21:54.962Z,7.80
2023-02-13T23:24:22.162Z,7.70
2023-02-13T23:26:49.324Z,7.80
2023-02-13T23:29:16.568Z,7.80
2023-02-13T23:31:43.778Z,7.70
2023-02-13T23:34:11.023Z,7.60
2023-02-13T23:36:38.133Z,7.60
2023-02-13T23:39:05.385Z,7.60
2023-02-13T23:41:32.446Z,7.50
2023-02-13T23:43:59.575Z,7.50
2023-02-13T23:46:26.871Z,7.40
2023-02-13T23:48:53.982Z,7.40
2023-02-13T23:51:23.119Z,7.40
2023-02-13T23:53:56.179Z,7.30
2023-02-13T23:56:25.057Z,7.40
2023-02-13T23:58:52.829Z,7.40
